sensor_id;sensor_type;location;lat;lon;timestamp;pressure;altitude;pressure_sealevel;temperature;humidity
42111;BME280;27766;52.174;5.456;2023-02-28T00:01:46;103098.91;;;1.20;100.00
42111;BME280;27766;52.174;5.456;2023-02-28T00:04:14;103093.81;;;1.20;100.00
42111;BME280;27766;52.174;5.456;2023-02-28T00:06:41;103091.38;;;1.21;100.00
42111;BME280;27766;52.174;5.456;2023-02-28T00:09:08;103116.38;;;1.34;100.00
42111;BME280;27766;52.174;5.456;2023-02-28T00:11:36;103109.59;;;1.35;100.00
42111;BME280;27766;52.174;5.456;2023-02-28T00:14:04;103101.81;;;1.33;100.00
42111;BME280;27766;52.174;5.456;2023-02-28T00:16:31;103099.13;;;1.32;100.00
42111;BME280;27766;52.174;5.456;2023-02-28T00:18:58;103107.22;;;1.36;100.00
42111;BME280;27766;52.174;5.456;2023-02-28T00:21:25;103116.47;;;1.45;100.00
42111;BME280;27766;52.174;5.456;2023-02-28T00:23:53;103113.31;;;1.47;100.00
42111;BME280;27766;52.174;5.456;2023-02-28T00:26:20;103107.78;;;1.42;100.00
42111;BME280;27766;52.174;5.456;2023-02-28T00:28:48;103114.94;;;1.47;100.00
42111;BME280;27766;52.174;5.456;2023-02-28T00:31:15;103105.66;;;1.47;100.00
42111;BME280;27766;52.174;5.456;2023-02-28T00:33:42;103111.00;;;1.50;100.00
42111;BME280;27766;52.174;5.456;2023-02-28T00:36:10;103114.47;;;1.51;100.00
42111;BME280;27766;52.174;5.456;2023-02-28T00:38:39;103117.47;;;1.55;100.00
42111;BME280;27766;52.174;5.456;2023-02-28T00:41:07;103102.41;;;1.58;100.00
42111;BME280;27766;52.174;5.456;2023-02-28T00:43:36;103115.16;;;1.58;100.00
42111;BME280;27766;52.174;5.456;2023-02-28T00:46:04;103099.91;;;1.50;100.00
42111;BME280;27766;52.174;5.456;2023-02-28T00:48:32;103109.03;;;1.56;100.00
42111;BME280;27766;52.174;5.456;2023-02-28T00:50:59;103094.59;;;1.57;100.00
42111;BME280;27766;52.174;5.456;2023-02-28T00:53:27;103098.97;;;1.58;100.00
42111;BME280;27766;52.174;5.456;2023-02-28T00:55:55;103095.50;;;1.57;100.00
42111;BME280;27766;52.174;5.456;2023-02-28T00:58:22;103105.38;;;1.63;100.00
42111;BME280;27766;52.174;5.456;2023-02-28T01:00:50;103106.53;;;1.67;100.00
42111;BME280;27766;52.174;5.456;2023-02-28T01:03:19;103091.31;;;1.58;100.00
42111;BME280;27766;52.174;5.456;2023-02-28T01:05:46;103110.16;;;1.69;100.00
42111;BME280;27766;52.174;5.456;2023-02-28T01:08:14;103106.84;;;1.70;100.00
42111;BME280;27766;52.174;5.456;2023-02-28T01:10:41;103097.09;;;1.66;100.00
42111;BME280;27766;52.174;5.456;2023-02-28T01:13:09;103105.47;;;1.73;100.00
42111;BME280;27766;52.174;5.456;2023-02-28T01:15:36;103108.13;;;1.75;100.00
42111;BME280;27766;52.174;5.456;2023-02-28T01:18:04;103102.50;;;1.69;100.00
42111;BME280;27766;52.174;5.456;2023-02-28T01:20:31;103104.28;;;1.70;100.00
42111;BME280;27766;52.174;5.456;2023-02-28T01:22:58;103102.91;;;1.73;100.00
42111;BME280;27766;52.174;5.456;2023-02-28T01:25:25;103095.59;;;1.68;100.00
42111;BME280;27766;52.174;5.456;2023-02-28T01:27:53;103081.78;;;1.66;100.00
42111;BME280;27766;52.174;5.456;2023-02-28T01:30:20;103093.44;;;1.72;100.00
42111;BME280;27766;52.174;5.456;2023-02-28T01:32:47;103091.94;;;1.74;100.00
42111;BME280;27766;52.174;5.456;2023-02-28T01:35:14;103090.91;;;1.72;100.00
42111;BME280;27766;52.174;5.456;2023-02-28T01:37:41;103094.75;;;1.78;100.00
42111;BME280;27766;52.174;5.456;2023-02-28T01:40:09;103092.34;;;1.79;100.00
42111;BME280;27766;52.174;5.456;2023-02-28T01:42:36;103096.41;;;1.77;100.00
42111;BME280;27766;52.174;5.456;2023-02-28T01:45:25;103097.47;;;1.79;100.00
42111;BME280;27766;52.174;5.456;2023-02-28T01:48:05;103091.03;;;1.74;100.00
42111;BME280;27766;52.174;5.456;2023-02-28T01:50:38;103093.09;;;1.78;100.00
42111;BME280;27766;52.174;5.456;2023-02-28T01:53:21;103094.00;;;1.79;100.00
42111;BME280;27766;52.174;5.456;2023-02-28T01:55:50;103091.31;;;1.77;100.00
42111;BME280;27766;52.174;5.456;2023-02-28T01:58:19;103087.09;;;1.78;100.00
42111;BME280;27766;52.174;5.456;2023-02-28T02:00:46;103076.75;;;1.76;100.00
42111;BME280;27766;52.174;5.456;2023-02-28T02:03:15;103079.09;;;1.83;100.00
42111;BME280;27766;52.174;5.456;2023-02-28T02:05:46;103066.19;;;1.82;100.00
42111;BME280;27766;52.174;5.456;2023-02-28T02:08:20;103075.03;;;1.85;100.00
42111;BME280;27766;52.174;5.456;2023-02-28T02:10:56;103059.69;;;1.85;100.00
42111;BME280;27766;52.174;5.456;2023-02-28T02:16:28;103074.69;;;1.91;100.00
42111;BME280;27766;52.174;5.456;2023-02-28T02:36:18;103071.13;;;1.99;100.00
42111;BME280;27766;52.174;5.456;2023-02-28T02:39:04;103070.09;;;1.97;100.00
42111;BME280;27766;52.174;5.456;2023-02-28T02:42:01;103069.19;;;1.97;100.00
42111;BME280;27766;52.174;5.456;2023-02-28T02:44:43;103072.78;;;1.99;100.00
42111;BME280;27766;52.174;5.456;2023-02-28T02:47:15;103073.84;;;2.01;100.00
42111;BME280;27766;52.174;5.456;2023-02-28T02:49:49;103071.13;;;1.99;100.00
42111;BME280;27766;52.174;5.456;2023-02-28T02:52:20;103063.19;;;1.96;100.00
42111;BME280;27766;52.174;5.456;2023-02-28T02:54:50;103070.66;;;2.03;100.00
42111;BME280;27766;52.174;5.456;2023-02-28T02:57:27;103054.03;;;1.98;100.00
42111;BME280;27766;52.174;5.456;2023-02-28T02:59:58;103063.31;;;1.98;100.00
42111;BME280;27766;52.174;5.456;2023-02-28T03:02:29;103063.06;;;1.95;100.00
42111;BME280;27766;52.174;5.456;2023-02-28T03:05:47;103076.63;;;2.04;100.00
42111;BME280;27766;52.174;5.456;2023-02-28T03:07:48;103074.25;;;2.05;100.00
42111;BME280;27766;52.174;5.456;2023-02-28T03:10:40;103081.00;;;2.05;100.00
42111;BME280;27766;52.174;5.456;2023-02-28T03:13:34;103076.81;;;2.05;100.00
42111;BME280;27766;52.174;5.456;2023-02-28T03:22:23;103073.63;;;2.08;100.00
42111;BME280;27766;52.174;5.456;2023-02-28T03:25:08;103065.53;;;2.03;100.00
42111;BME280;27766;52.174;5.456;2023-02-28T03:27:40;103075.41;;;2.09;100.00
42111;BME280;27766;52.174;5.456;2023-02-28T03:30:15;103075.66;;;2.12;100.00
42111;BME280;27766;52.174;5.456;2023-02-28T03:32:57;103075.66;;;2.12;100.00
42111;BME280;27766;52.174;5.456;2023-02-28T03:35:31;103068.00;;;2.12;100.00
42111;BME280;27766;52.174;5.456;2023-02-28T03:38:25;103074.03;;;2.13;100.00
42111;BME280;27766;52.174;5.456;2023-02-28T03:41:06;103075.03;;;2.15;100.00
42111;BME280;27766;52.174;5.456;2023-02-28T03:43:38;103071.19;;;2.10;100.00
42111;BME280;27766;52.174;5.456;2023-02-28T03:46:10;103085.88;;;2.12;100.00
42111;BME280;27766;52.174;5.456;2023-02-28T03:48:46;103085.47;;;2.08;100.00
42111;BME280;27766;52.174;5.456;2023-02-28T03:51:18;103099.56;;;2.13;100.00
42111;BME280;27766;52.174;5.456;2023-02-28T03:53:53;103101.09;;;2.11;100.00
42111;BME280;27766;52.174;5.456;2023-02-28T03:56:40;103094.94;;;2.09;100.00
42111;BME280;27766;52.174;5.456;2023-02-28T03:59:14;103088.19;;;2.09;100.00
42111;BME280;27766;52.174;5.456;2023-02-28T04:01:47;103082.16;;;2.09;100.00
42111;BME280;27766;52.174;5.456;2023-02-28T04:04:15;103083.84;;;2.08;100.00
42111;BME280;27766;52.174;5.456;2023-02-28T04:06:44;103081.75;;;2.04;100.00
42111;BME280;27766;52.174;5.456;2023-02-28T04:09:13;103090.56;;;2.08;100.00
42111;BME280;27766;52.174;5.456;2023-02-28T04:11:45;103091.50;;;2.08;100.00
42111;BME280;27766;52.174;5.456;2023-02-28T04:14:15;103092.38;;;2.09;100.00
42111;BME280;27766;52.174;5.456;2023-02-28T04:16:43;103098.41;;;2.09;100.00
42111;BME280;27766;52.174;5.456;2023-02-28T04:19:11;103091.63;;;2.10;100.00
42111;BME280;27766;52.174;5.456;2023-02-28T04:21:43;103077.91;;;1.99;100.00
42111;BME280;27766;52.174;5.456;2023-02-28T04:24:13;103099.50;;;2.02;100.00
42111;BME280;27766;52.174;5.456;2023-02-28T04:26:47;103103.94;;;1.95;100.00
42111;BME280;27766;52.174;5.456;2023-02-28T04:29:22;103106.84;;;1.89;100.00
42111;BME280;27766;52.174;5.456;2023-02-28T04:31:50;103106.75;;;1.79;100.00
42111;BME280;27766;52.174;5.456;2023-02-28T04:34:17;103109.44;;;1.80;100.00
42111;BME280;27766;52.174;5.456;2023-02-28T04:36:45;103110.22;;;1.79;100.00
42111;BME280;27766;52.174;5.456;2023-02-28T04:39:12;103096.34;;;1.67;100.00
42111;BME280;27766;52.174;5.456;2023-02-28T04:41:40;103114.16;;;1.76;100.00
42111;BME280;27766;52.174;5.456;2023-02-28T04:44:07;103107.31;;;1.66;100.00
42111;BME280;27766;52.174;5.456;2023-02-28T04:46:34;103118.84;;;1.71;100.00
42111;BME280;27766;52.174;5.456;2023-02-28T04:49:01;103116.94;;;1.68;100.00
42111;BME280;27766;52.174;5.456;2023-02-28T04:51:28;103108.25;;;1.57;100.00
42111;BME280;27766;52.174;5.456;2023-02-28T04:53:57;103108.25;;;1.57;100.00
42111;BME280;27766;52.174;5.456;2023-02-28T04:56:24;103110.25;;;1.51;100.00
42111;BME280;27766;52.174;5.456;2023-02-28T04:58:51;103106.09;;;1.43;100.00
42111;BME280;27766;52.174;5.456;2023-02-28T05:01:25;103113.31;;;1.47;100.00
42111;BME280;27766;52.174;5.456;2023-02-28T05:03:55;103114.38;;;1.40;100.00
42111;BME280;27766;52.174;5.456;2023-02-28T05:06:24;103112.16;;;1.35;100.00
42111;BME280;27766;52.174;5.456;2023-02-28T05:08:52;103107.13;;;1.26;100.00
42111;BME280;27766;52.174;5.456;2023-02-28T05:11:31;103099.53;;;1.17;100.00
42111;BME280;27766;52.174;5.456;2023-02-28T05:14:03;103103.44;;;1.14;100.00
42111;BME280;27766;52.174;5.456;2023-02-28T05:16:31;103102.84;;;1.07;100.00
42111;BME280;27766;52.174;5.456;2023-02-28T05:18:59;103116.25;;;0.96;100.00
42111;BME280;27766;52.174;5.456;2023-02-28T05:21:31;103113.28;;;0.91;100.00
42111;BME280;27766;52.174;5.456;2023-02-28T05:24:01;103118.09;;;0.88;100.00
42111;BME280;27766;52.174;5.456;2023-02-28T05:26:30;103125.47;;;0.85;100.00
42111;BME280;27766;52.174;5.456;2023-02-28T05:28:58;103116.63;;;0.82;100.00
42111;BME280;27766;52.174;5.456;2023-02-28T05:31:25;103113.94;;;0.80;100.00
42111;BME280;27766;52.174;5.456;2023-02-28T05:33:53;103101.22;;;0.71;100.00
42111;BME280;27766;52.174;5.456;2023-02-28T05:36:20;103109.78;;;0.72;100.00
42111;BME280;27766;52.174;5.456;2023-02-28T05:38:49;103113.34;;;0.74;100.00
42111;BME280;27766;52.174;5.456;2023-02-28T05:41:17;103099.13;;;0.67;100.00
42111;BME280;27766;52.174;5.456;2023-02-28T05:43:46;103109.34;;;0.67;100.00
42111;BME280;27766;52.174;5.456;2023-02-28T05:46:14;103108.41;;;0.67;100.00
42111;BME280;27766;52.174;5.456;2023-02-28T05:48:42;103119.53;;;0.67;100.00
42111;BME280;27766;52.174;5.456;2023-02-28T05:51:09;103113.41;;;0.56;100.00
42111;BME280;27766;52.174;5.456;2023-02-28T05:53:36;103132.59;;;0.61;100.00
42111;BME280;27766;52.174;5.456;2023-02-28T05:56:04;103125.81;;;0.62;100.00
42111;BME280;27766;52.174;5.456;2023-02-28T05:58:34;103118.34;;;0.55;100.00
42111;BME280;27766;52.174;5.456;2023-02-28T06:03:53;103112.22;;;0.44;100.00
42111;BME280;27766;52.174;5.456;2023-02-28T06:06:20;103109.41;;;0.32;100.00
42111;BME280;27766;52.174;5.456;2023-02-28T06:08:47;103101.63;;;0.22;100.00
42111;BME280;27766;52.174;5.456;2023-02-28T06:11:14;103104.94;;;0.21;100.00
42111;BME280;27766;52.174;5.456;2023-02-28T06:13:42;103113.78;;;0.24;100.00
42111;BME280;27766;52.174;5.456;2023-02-28T06:16:10;103110.91;;;0.21;100.00
42111;BME280;27766;52.174;5.456;2023-02-28T06:18:38;103095.03;;;0.15;100.00
42111;BME280;27766;52.174;5.456;2023-02-28T06:21:05;103099.53;;;0.18;100.00
42111;BME280;27766;52.174;5.456;2023-02-28T06:23:33;103099.22;;;0.23;100.00
42111;BME280;27766;52.174;5.456;2023-02-28T06:26:00;103098.34;;;0.23;100.00
42111;BME280;27766;52.174;5.456;2023-02-28T06:28:27;103099.84;;;0.21;100.00
42111;BME280;27766;52.174;5.456;2023-02-28T06:30:54;103104.63;;;0.26;100.00
42111;BME280;27766;52.174;5.456;2023-02-28T06:33:21;103109.56;;;0.25;100.00
42111;BME280;27766;52.174;5.456;2023-02-28T06:35:51;103103.28;;;0.21;100.00
42111;BME280;27766;52.174;5.456;2023-02-28T06:38:19;103104.00;;;0.20;100.00
42111;BME280;27766;52.174;5.456;2023-02-28T06:40:53;103105.69;;;0.11;100.00
42111;BME280;27766;52.174;5.456;2023-02-28T06:43:21;103096.09;;;-0.01;100.00
42111;BME280;27766;52.174;5.456;2023-02-28T06:45:49;103097.91;;;0.01;100.00
42111;BME280;27766;52.174;5.456;2023-02-28T06:48:16;103084.59;;;-0.06;100.00
42111;BME280;27766;52.174;5.456;2023-02-28T06:50:44;103093.13;;;0.04;100.00
42111;BME280;27766;52.174;5.456;2023-02-28T06:53:11;103086.66;;;-0.02;100.00
42111;BME280;27766;52.174;5.456;2023-02-28T06:55:39;103103.44;;;0.14;100.00
42111;BME280;27766;52.174;5.456;2023-02-28T06:58:06;103107.75;;;0.24;100.00
42111;BME280;27766;52.174;5.456;2023-02-28T07:00:42;103114.81;;;0.35;100.00
42111;BME280;27766;52.174;5.456;2023-02-28T07:03:11;103112.22;;;0.44;100.00
42111;BME280;27766;52.174;5.456;2023-02-28T07:05:39;103112.22;;;0.53;100.00
42111;BME280;27766;52.174;5.456;2023-02-28T07:08:06;103120.59;;;0.60;100.00
42111;BME280;27766;52.174;5.456;2023-02-28T07:10:34;103118.03;;;0.60;100.00
42111;BME280;27766;52.174;5.456;2023-02-28T07:13:01;103116.22;;;0.59;100.00
42111;BME280;27766;52.174;5.456;2023-02-28T07:15:28;103108.16;;;0.63;100.00
42111;BME280;27766;52.174;5.456;2023-02-28T07:17:55;103125.25;;;0.65;100.00
42111;BME280;27766;52.174;5.456;2023-02-28T07:20:24;103118.94;;;0.61;100.00
42111;BME280;27766;52.174;5.456;2023-02-28T07:22:51;103122.09;;;0.58;100.00
42111;BME280;27766;52.174;5.456;2023-02-28T07:25:27;103130.66;;;0.59;100.00
42111;BME280;27766;52.174;5.456;2023-02-28T07:27:55;103130.34;;;0.65;100.00
42111;BME280;27766;52.174;5.456;2023-02-28T07:30:24;103121.91;;;0.66;100.00
42111;BME280;27766;52.174;5.456;2023-02-28T07:32:51;103125.50;;;0.68;100.00
42111;BME280;27766;52.174;5.456;2023-02-28T07:35:18;103118.78;;;0.68;100.00
42111;BME280;27766;52.174;5.456;2023-02-28T07:37:46;103114.88;;;0.63;100.00
42111;BME280;27766;52.174;5.456;2023-02-28T07:40:14;103128.81;;;0.75;100.00
42111;BME280;27766;52.174;5.456;2023-02-28T07:42:41;103134.47;;;0.82;100.00
42111;BME280;27766;52.174;5.456;2023-02-28T07:45:09;103136.09;;;0.81;100.00
42111;BME280;27766;52.174;5.456;2023-02-28T07:47:38;103134.75;;;0.85;100.00
42111;BME280;27766;52.174;5.456;2023-02-28T07:50:08;103146.44;;;0.91;100.00
42111;BME280;27766;52.174;5.456;2023-02-28T07:52:38;103138.03;;;0.92;100.00
42111;BME280;27766;52.174;5.456;2023-02-28T07:55:07;103132.63;;;0.98;100.00
42111;BME280;27766;52.174;5.456;2023-02-28T07:57:34;103116.69;;;1.01;100.00
42111;BME280;27766;52.174;5.456;2023-02-28T08:00:06;103125.84;;;0.99;100.00
42111;BME280;27766;52.174;5.456;2023-02-28T08:02:33;103135.88;;;1.06;100.00
42111;BME280;27766;52.174;5.456;2023-02-28T08:05:00;103149.63;;;1.17;100.00
42111;BME280;27766;52.174;5.456;2023-02-28T08:07:28;103140.91;;;1.23;100.00
42111;BME280;27766;52.174;5.456;2023-02-28T08:09:55;103142.97;;;1.27;100.00
42111;BME280;27766;52.174;5.456;2023-02-28T08:12:25;103134.84;;;1.32;100.00
42111;BME280;27766;52.174;5.456;2023-02-28T08:14:53;103150.53;;;1.45;100.00
42111;BME280;27766;52.174;5.456;2023-02-28T08:17:20;103161.25;;;1.41;100.00
42111;BME280;27766;52.174;5.456;2023-02-28T08:19:47;103156.88;;;1.40;100.00
42111;BME280;27766;52.174;5.456;2023-02-28T08:22:14;103165.66;;;1.52;100.00
42111;BME280;27766;52.174;5.456;2023-02-28T08:24:42;103163.53;;;1.57;100.00
42111;BME280;27766;52.174;5.456;2023-02-28T08:27:09;103158.72;;;1.60;100.00
42111;BME280;27766;52.174;5.456;2023-02-28T08:29:37;103165.28;;;1.67;100.00
42111;BME280;27766;52.174;5.456;2023-02-28T08:32:06;103155.47;;;1.71;100.00
42111;BME280;27766;52.174;5.456;2023-02-28T08:34:46;103153.34;;;1.76;100.00
42111;BME280;27766;52.174;5.456;2023-02-28T08:37:14;103163.50;;;1.85;100.00
42111;BME280;27766;52.174;5.456;2023-02-28T08:39:41;103161.22;;;1.88;100.00
42111;BME280;27766;52.174;5.456;2023-02-28T08:42:08;103153.56;;;1.88;100.00
42111;BME280;27766;52.174;5.456;2023-02-28T08:44:35;103143.28;;;1.97;100.00
42111;BME280;27766;52.174;5.456;2023-02-28T08:47:02;103149.22;;;2.06;100.00
42111;BME280;27766;52.174;5.456;2023-02-28T08:49:29;103151.50;;;2.22;100.00
42111;BME280;27766;52.174;5.456;2023-02-28T08:51:59;103158.94;;;2.29;100.00
42111;BME280;27766;52.174;5.456;2023-02-28T08:54:27;103165.78;;;2.39;100.00
42111;BME280;27766;52.174;5.456;2023-02-28T08:56:57;103159.81;;;2.49;100.00
42111;BME280;27766;52.174;5.456;2023-02-28T08:59:25;103169.00;;;2.47;100.00
42111;BME280;27766;52.174;5.456;2023-02-28T09:01:53;103172.59;;;2.49;100.00
42111;BME280;27766;52.174;5.456;2023-02-28T09:04:20;103171.53;;;2.47;100.00
42111;BME280;27766;52.174;5.456;2023-02-28T09:06:50;103175.28;;;2.50;100.00
42111;BME280;27766;52.174;5.456;2023-02-28T09:09:17;103181.19;;;2.60;100.00
42111;BME280;27766;52.174;5.456;2023-02-28T09:11:44;103170.44;;;2.53;100.00
42111;BME280;27766;52.174;5.456;2023-02-28T09:14:11;103172.19;;;2.74;100.00
42111;BME280;27766;52.174;5.456;2023-02-28T09:16:38;103165.16;;;2.81;100.00
42111;BME280;27766;52.174;5.456;2023-02-28T09:19:12;103169.69;;;2.94;100.00
42111;BME280;27766;52.174;5.456;2023-02-28T09:21:39;103175.38;;;3.11;100.00
42111;BME280;27766;52.174;5.456;2023-02-28T09:24:07;103164.81;;;3.37;100.00
42111;BME280;27766;52.174;5.456;2023-02-28T09:26:34;103169.53;;;3.53;100.00
42111;BME280;27766;52.174;5.456;2023-02-28T09:29:09;103169.28;;;3.71;100.00
42111;BME280;27766;52.174;5.456;2023-02-28T09:31:36;103173.66;;;3.82;100.00
42111;BME280;27766;52.174;5.456;2023-02-28T09:34:04;103161.72;;;3.83;100.00
42111;BME280;27766;52.174;5.456;2023-02-28T09:36:31;103169.81;;;3.87;100.00
42111;BME280;27766;52.174;5.456;2023-02-28T09:39:10;103175.47;;;3.83;90.49
42111;BME280;27766;52.174;5.456;2023-02-28T09:41:43;103179.28;;;3.78;84.38
42111;BME280;27766;52.174;5.456;2023-02-28T09:44:42;103176.97;;;3.71;71.62
42111;BME280;27766;52.174;5.456;2023-02-28T09:47:18;103183.78;;;3.70;71.02
42111;BME280;27766;52.174;5.456;2023-02-28T09:49:48;103174.41;;;3.60;67.39
42111;BME280;27766;52.174;5.456;2023-02-28T09:52:22;103180.16;;;3.58;65.12
42111;BME280;27766;52.174;5.456;2023-02-28T09:54:51;103185.06;;;3.55;62.77
42111;BME280;27766;52.174;5.456;2023-02-28T10:00:15;103184.81;;;3.62;65.05
42111;BME280;27766;52.174;5.456;2023-02-28T10:03:17;103193.00;;;3.68;63.50
42111;BME280;27766;52.174;5.456;2023-02-28T10:08:36;103179.41;;;3.90;64.79
42111;BME280;27766;52.174;5.456;2023-02-28T10:11:12;103167.84;;;3.95;64.57
42111;BME280;27766;52.174;5.456;2023-02-28T10:25:17;103160.09;;;4.69;63.45
42111;BME280;27766;52.174;5.456;2023-02-28T10:27:45;103159.09;;;4.67;60.10
42111;BME280;27766;52.174;5.456;2023-02-28T10:30:13;103161.69;;;4.56;57.58
42111;BME280;27766;52.174;5.456;2023-02-28T10:32:47;103163.88;;;4.52;56.80
42111;BME280;27766;52.174;5.456;2023-02-28T10:35:17;103151.75;;;4.39;57.73
42111;BME280;27766;52.174;5.456;2023-02-28T10:37:47;103156.47;;;4.44;58.64
42111;BME280;27766;52.174;5.456;2023-02-28T10:43:05;103162.75;;;4.48;56.54
42111;BME280;27766;52.174;5.456;2023-02-28T10:45:34;103156.00;;;4.38;57.21
42111;BME280;27766;52.174;5.456;2023-02-28T10:48:22;103163.16;;;4.42;57.00
42111;BME280;27766;52.174;5.456;2023-02-28T10:50:54;103153.53;;;4.40;56.72
42111;BME280;27766;52.174;5.456;2023-02-28T11:03:59;103130.47;;;4.40;54.73
42111;BME280;27766;52.174;5.456;2023-02-28T11:06:31;103135.59;;;4.40;54.30
42111;BME280;27766;52.174;5.456;2023-02-28T11:09:30;103135.22;;;4.35;53.36
42111;BME280;27766;52.174;5.456;2023-02-28T11:12:02;103138.06;;;4.28;53.57
42111;BME280;27766;52.174;5.456;2023-02-28T11:14:31;103137.31;;;4.29;55.99
42111;BME280;27766;52.174;5.456;2023-02-28T11:17:13;103131.28;;;4.28;56.84
42111;BME280;27766;52.174;5.456;2023-02-28T11:19:46;103124.88;;;4.23;55.96
42111;BME280;27766;52.174;5.456;2023-02-28T11:22:19;103133.44;;;4.34;55.05
42111;BME280;27766;52.174;5.456;2023-02-28T11:24:48;103127.25;;;4.42;54.83
42111;BME280;27766;52.174;5.456;2023-02-28T11:27:49;103131.97;;;4.48;53.23
42111;BME280;27766;52.174;5.456;2023-02-28T11:30:39;103131.44;;;4.52;54.25
42111;BME280;27766;52.174;5.456;2023-02-28T11:36:08;103107.22;;;4.49;53.71
42111;BME280;27766;52.174;5.456;2023-02-28T11:38:37;103116.41;;;4.57;54.03
42111;BME280;27766;52.174;5.456;2023-02-28T11:50:18;103104.72;;;4.60;52.58
42111;BME280;27766;52.174;5.456;2023-02-28T12:05:47;103099.56;;;4.93;52.52
42111;BME280;27766;52.174;5.456;2023-02-28T12:08:22;103094.44;;;4.93;53.06
42111;BME280;27766;52.174;5.456;2023-02-28T12:19:10;103084.63;;;4.99;49.44
42111;BME280;27766;52.174;5.456;2023-02-28T12:22:32;103084.69;;;4.89;49.94
42111;BME280;27766;52.174;5.456;2023-02-28T12:27:25;103082.06;;;4.99;51.09
42111;BME280;27766;52.174;5.456;2023-02-28T12:29:58;103078.06;;;5.03;50.86
42111;BME280;27766;52.174;5.456;2023-02-28T12:32:32;103068.66;;;5.03;51.08
42111;BME280;27766;52.174;5.456;2023-02-28T12:35:12;103062.53;;;5.01;50.91
42111;BME280;27766;52.174;5.456;2023-02-28T12:37:41;103075.84;;;5.07;50.87
42111;BME280;27766;52.174;5.456;2023-02-28T12:40:17;103072.25;;;5.05;50.84
42111;BME280;27766;52.174;5.456;2023-02-28T12:42:49;103071.59;;;5.08;50.54
42111;BME280;27766;52.174;5.456;2023-02-28T12:45:20;103073.72;;;5.14;50.24
42111;BME280;27766;52.174;5.456;2023-02-28T12:48:01;103074.97;;;5.19;50.58
42111;BME280;27766;52.174;5.456;2023-02-28T12:50:30;103063.50;;;5.26;50.60
42111;BME280;27766;52.174;5.456;2023-02-28T12:53:23;103062.25;;;5.20;49.25
42111;BME280;27766;52.174;5.456;2023-02-28T12:56:15;103062.38;;;5.22;48.79
42111;BME280;27766;52.174;5.456;2023-02-28T12:58:50;103041.72;;;5.20;49.05
42111;BME280;27766;52.174;5.456;2023-02-28T13:09:41;103048.13;;;5.37;48.14
42111;BME280;27766;52.174;5.456;2023-02-28T13:12:17;103038.19;;;5.42;48.32
42111;BME280;27766;52.174;5.456;2023-02-28T13:14:45;103045.31;;;5.46;47.64
42111;BME280;27766;52.174;5.456;2023-02-28T13:17:18;103041.88;;;5.46;47.34
42111;BME280;27766;52.174;5.456;2023-02-28T13:19:58;103034.59;;;5.40;48.59
42111;BME280;27766;52.174;5.456;2023-02-28T13:24:55;103037.63;;;5.46;47.20
42111;BME280;27766;52.174;5.456;2023-02-28T13:27:35;103040.09;;;5.45;47.32
42111;BME280;27766;52.174;5.456;2023-02-28T13:35:48;103027.69;;;5.39;47.78
42111;BME280;27766;52.174;5.456;2023-02-28T13:38:22;103038.63;;;5.48;48.05
42111;BME280;27766;52.174;5.456;2023-02-28T13:40:50;103010.28;;;5.47;47.25
42111;BME280;27766;52.174;5.456;2023-02-28T13:43:18;103017.97;;;5.47;47.97
42111;BME280;27766;52.174;5.456;2023-02-28T13:46:27;103024.56;;;5.43;47.10
42111;BME280;27766;52.174;5.456;2023-02-28T13:48:54;103019.19;;;5.40;47.90
42111;BME280;27766;52.174;5.456;2023-02-28T13:51:38;103018.09;;;5.48;48.30
42111;BME280;27766;52.174;5.456;2023-02-28T14:00:25;103009.81;;;5.41;46.79
42111;BME280;27766;52.174;5.456;2023-02-28T14:03:08;103015.19;;;5.44;46.86
42111;BME280;27766;52.174;5.456;2023-02-28T14:05:41;103009.50;;;5.48;47.17
42111;BME280;27766;52.174;5.456;2023-02-28T14:08:15;103007.13;;;5.51;45.50
42111;BME280;27766;52.174;5.456;2023-02-28T14:10:46;102998.22;;;5.46;45.79
42111;BME280;27766;52.174;5.456;2023-02-28T14:16:20;102999.66;;;5.66;47.24
42111;BME280;27766;52.174;5.456;2023-02-28T14:19:12;103003.56;;;5.73;46.42
42111;BME280;27766;52.174;5.456;2023-02-28T14:22:16;102995.66;;;5.81;46.11
42111;BME280;27766;52.174;5.456;2023-02-28T14:25:09;103001.75;;;5.95;45.71
42111;BME280;27766;52.174;5.456;2023-02-28T14:32:58;102986.31;;;6.19;45.14
42111;BME280;27766;52.174;5.456;2023-02-28T14:38:46;102984.69;;;6.70;44.26
42111;BME280;27766;52.174;5.456;2023-02-28T14:41:29;102987.41;;;6.85;44.13
42111;BME280;27766;52.174;5.456;2023-02-28T14:43:58;102974.34;;;6.95;43.65
42111;BME280;27766;52.174;5.456;2023-02-28T14:46:34;102988.94;;;7.08;43.08
42111;BME280;27766;52.174;5.456;2023-02-28T14:49:04;102974.50;;;7.24;42.69
42111;BME280;27766;52.174;5.456;2023-02-28T14:51:33;102988.00;;;7.47;42.36
42111;BME280;27766;52.174;5.456;2023-02-28T14:54:01;102976.72;;;7.58;42.63
42111;BME280;27766;52.174;5.456;2023-02-28T14:56:34;102978.38;;;7.71;41.87
42111;BME280;27766;52.174;5.456;2023-02-28T14:59:02;102984.94;;;7.92;41.70
42111;BME280;27766;52.174;5.456;2023-02-28T15:01:30;102982.00;;;8.43;40.87
42111;BME280;27766;52.174;5.456;2023-02-28T15:04:04;102975.91;;;8.84;39.49
42111;BME280;27766;52.174;5.456;2023-02-28T15:06:32;102981.59;;;9.39;37.91
42111;BME280;27766;52.174;5.456;2023-02-28T15:09:15;102983.88;;;9.64;37.48
42111;BME280;27766;52.174;5.456;2023-02-28T15:11:46;102979.88;;;9.54;36.85
42111;BME280;27766;52.174;5.456;2023-02-28T15:14:18;102975.66;;;10.19;37.48
42111;BME280;27766;52.174;5.456;2023-02-28T15:16:52;102978.66;;;10.93;36.75
42111;BME280;27766;52.174;5.456;2023-02-28T15:19:29;102973.13;;;11.03;36.01
42111;BME280;27766;52.174;5.456;2023-02-28T15:22:01;102975.00;;;11.24;35.76
42111;BME280;27766;52.174;5.456;2023-02-28T15:24:36;102973.47;;;10.93;35.57
42111;BME280;27766;52.174;5.456;2023-02-28T15:27:07;102979.28;;;10.38;36.14